createdAt,value
2023-02-26T00:01:41.198Z,3.41
2023-02-26T00:04:10.462Z,3.40
2023-02-26T00:06:39.868Z,3.39
2023-02-26T00:09:08.679Z,3.38
2023-02-26T00:11:37.776Z,3.38
2023-02-26T00:14:09.201Z,3.39
2023-02-26T00:16:39.457Z,3.39
2023-02-26T00:19:10.660Z,3.39
2023-02-26T00:21:39.776Z,3.38
2023-02-26T00:24:11.258Z,3.40
2023-02-26T00:26:40.122Z,3.41
2023-02-26T00:29:09.403Z,3.41
2023-02-26T00:31:46.222Z,3.40
2023-02-26T00:34:16.146Z,3.38
2023-02-26T00:36:58.974Z,3.37
2023-02-26T00:40:00.125Z,3.35
2023-02-26T00:42:29.086Z,3.33
2023-02-26T00:44:58.112Z,3.30
2023-02-26T00:47:34.067Z,3.28
2023-02-26T00:50:21.715Z,3.28
2023-02-26T00:52:56.860Z,3.27
2023-02-26T00:55:27.251Z,3.27
2023-02-26T00:58:00.269Z,3.27
2023-02-26T01:00:31.319Z,3.27
2023-02-26T01:03:03.993Z,3.26
2023-02-26T01:05:33.956Z,3.26
2023-02-26T01:08:24.817Z,3.25
2023-02-26T01:10:53.936Z,3.25
2023-02-26T01:13:22.866Z,3.23
2023-02-26T01:15:55.580Z,3.24
2023-02-26T01:18:32.055Z,3.23
2023-02-26T01:21:04.555Z,3.22
2023-02-26T01:23:37.137Z,3.23
2023-02-26T01:26:13.346Z,3.25
2023-02-26T01:28:43.950Z,3.27
2023-02-26T01:31:55.558Z,3.27
2023-02-26T01:34:47.747Z,3.28
2023-02-26T01:37:23.701Z,3.26
2023-02-26T01:40:16.670Z,3.24
2023-02-26T01:42:46.376Z,3.22
2023-02-26T01:45:17.478Z,3.20
2023-02-26T01:48:06.692Z,3.18
2023-02-26T01:50:37.849Z,3.21
2023-02-26T01:53:18.734Z,3.22
2023-02-26T01:55:50.806Z,3.23
2023-02-26T01:58:20.510Z,3.24
2023-02-26T02:00:49.072Z,3.25
2023-02-26T02:03:20.085Z,3.26
2023-02-26T02:06:15.132Z,3.25
2023-02-26T02:08:43.731Z,3.24
2023-02-26T02:11:12.422Z,3.22
2023-02-26T02:13:54.096Z,3.21
2023-02-26T02:16:42.075Z,3.23
2023-02-26T02:19:17.784Z,3.23
2023-02-26T02:22:11.766Z,3.24
2023-02-26T02:24:55.409Z,3.26
2023-02-26T02:27:32.361Z,3.27
2023-02-26T02:30:07.121Z,3.28
2023-02-26T02:32:45.398Z,3.30
2023-02-26T02:35:27.629Z,3.31
2023-02-26T02:38:17.110Z,3.32
2023-02-26T02:40:50.298Z,3.32
2023-02-26T02:43:21.962Z,3.32
2023-02-26T02:45:58.867Z,3.34
2023-02-26T02:48:49.061Z,3.35
2023-02-26T02:51:22.879Z,3.34
2023-02-26T02:54:30.338Z,3.35
2023-02-26T02:57:14.996Z,3.36
2023-02-26T02:59:48.558Z,3.35
2023-02-26T03:02:33.959Z,3.35
2023-02-26T03:05:02.474Z,3.33
2023-02-26T03:07:33.445Z,3.33
2023-02-26T03:10:01.792Z,3.32
2023-02-26T03:12:33.968Z,3.31
2023-02-26T03:15:05.498Z,3.34
2023-02-26T03:18:20.812Z,3.37
2023-02-26T03:21:02.435Z,3.42
2023-02-26T03:23:47.240Z,3.45
2023-02-26T03:26:24.808Z,3.48
2023-02-26T03:29:05.537Z,3.49
2023-02-26T03:31:38.546Z,3.53
2023-02-26T03:34:16.135Z,3.56
2023-02-26T03:36:52.141Z,3.58
2023-02-26T03:39:27.646Z,3.58
2023-02-26T03:42:25.906Z,3.56
2023-02-26T03:45:01.968Z,3.55
2023-02-26T03:47:30.567Z,3.53
2023-02-26T03:50:05.484Z,3.53
2023-02-26T03:52:38.382Z,3.50
2023-02-26T03:55:41.887Z,3.46
2023-02-26T03:58:29.991Z,3.42
2023-02-26T04:01:23.905Z,3.39
2023-02-26T04:04:02.368Z,3.38
2023-02-26T04:06:31.844Z,3.36
2023-02-26T04:09:01.291Z,3.32
2023-02-26T04:11:29.796Z,3.30
2023-02-26T04:13:58.107Z,3.28
2023-02-26T04:16:27.023Z,3.27
2023-02-26T04:18:55.686Z,3.27
2023-02-26T04:21:24.213Z,3.28
2023-02-26T04:23:52.747Z,3.28
2023-02-26T04:26:21.301Z,3.27
2023-02-26T04:28:50.182Z,3.26
2023-02-26T04:31:18.788Z,3.27
2023-02-26T04:33:47.394Z,3.25
2023-02-26T04:36:18.031Z,3.25
2023-02-26T04:38:47.332Z,3.25
2023-02-26T04:41:15.719Z,3.24
2023-02-26T04:43:44.610Z,3.25
2023-02-26T04:46:21.116Z,3.26
2023-02-26T04:48:49.562Z,3.27
2023-02-26T04:51:21.221Z,3.28
2023-02-26T04:53:51.548Z,3.27
2023-02-26T04:56:20.231Z,3.27
2023-02-26T04:58:49.331Z,3.27
2023-02-26T05:01:25.207Z,3.27
2023-02-26T05:03:53.607Z,3.27
2023-02-26T05:06:22.055Z,3.27
2023-02-26T05:08:54.735Z,3.26
2023-02-26T05:11:24.148Z,3.26
2023-02-26T05:13:52.733Z,3.26
2023-02-26T05:16:24.754Z,3.27
2023-02-26T05:18:53.996Z,3.28
2023-02-26T05:21:25.179Z,3.29
2023-02-26T05:23:54.656Z,3.30
2023-02-26T05:26:23.669Z,3.32
2023-02-26T05:28:56.709Z,3.33
2023-02-26T05:31:27.111Z,3.34
2023-02-26T05:33:56.461Z,3.37
2023-02-26T05:36:24.953Z,3.39
2023-02-26T05:38:54.458Z,3.41
2023-02-26T05:41:23.146Z,3.44
2023-02-26T05:43:51.629Z,3.48
2023-02-26T05:46:19.961Z,3.52
2023-02-26T05:48:53.494Z,3.58
2023-02-26T05:51:22.096Z,3.62
2023-02-26T05:53:50.374Z,3.65
2023-02-26T05:56:18.564Z,3.68
2023-02-26T05:58:48.368Z,3.70
2023-02-26T06:01:17.665Z,3.73
2023-02-26T06:03:46.149Z,3.76
2023-02-26T06:06:18.733Z,3.77
2023-02-26T06:08:47.696Z,3.80
2023-02-26T06:11:20.407Z,3.81
2023-02-26T06:13:49.708Z,3.82
2023-02-26T06:16:18.353Z,3.84
2023-02-26T06:18:47.423Z,3.87
2023-02-26T06:21:16.854Z,3.89
2023-02-26T06:23:45.388Z,3.91
2023-02-26T06:26:13.764Z,3.94
2023-02-26T06:28:43.379Z,3.98
2023-02-26T06:31:12.905Z,4.03
2023-02-26T06:33:42.599Z,4.03
2023-02-26T06:36:11.606Z,4.02
2023-02-26T06:38:40.092Z,4.04
2023-02-26T06:41:09.402Z,4.07
2023-02-26T06:43:38.907Z,4.09
2023-02-26T06:46:07.840Z,4.08
2023-02-26T06:48:38.126Z,4.10
2023-02-26T06:51:07.705Z,4.12
2023-02-26T06:53:36.410Z,4.14
2023-02-26T06:56:05.536Z,4.19
2023-02-26T06:58:34.201Z,4.20
2023-02-26T07:01:04.306Z,4.24
2023-02-26T07:03:32.912Z,4.28
2023-02-26T07:06:25.597Z,4.31
2023-02-26T07:08:52.886Z,4.37
2023-02-26T07:11:22.131Z,4.39
2023-02-26T07:13:52.276Z,4.42
2023-02-26T07:16:20.612Z,4.48
2023-02-26T07:18:49.124Z,4.54
2023-02-26T07:21:17.799Z,4.57
2023-02-26T07:23:46.204Z,4.61
2023-02-26T07:26:15.879Z,4.67
2023-02-26T07:28:45.411Z,4.71
2023-02-26T07:31:20.832Z,4.74
2023-02-26T07:33:50.636Z,4.77
2023-02-26T07:36:19.581Z,4.80
2023-02-26T07:38:49.477Z,4.83
2023-02-26T07:41:20.392Z,4.87
2023-02-26T07:43:50.857Z,4.92
2023-02-26T07:46:23.110Z,4.98
2023-02-26T07:48:54.052Z,5.05
2023-02-26T07:51:26.330Z,5.11
2023-02-26T07:54:06.267Z,5.16
2023-02-26T07:56:40.061Z,5.21
2023-02-26T07:59:13.715Z,5.27
2023-02-26T08:01:45.194Z,5.33
2023-02-26T08:04:34.854Z,5.43
2023-02-26T08:07:20.915Z,5.58
2023-02-26T08:09:51.748Z,5.66
2023-02-26T08:12:25.708Z,5.69
2023-02-26T08:14:58.432Z,5.74
2023-02-26T08:17:29.270Z,5.81
2023-02-26T08:19:58.579Z,5.89
2023-02-26T08:22:27.684Z,5.94
2023-02-26T08:24:58.628Z,5.95
2023-02-26T08:27:30.253Z,5.91
2023-02-26T08:30:02.312Z,5.87
2023-02-26T08:32:40.212Z,5.87
2023-02-26T08:35:29.306Z,5.92
2023-02-26T08:38:01.074Z,5.93
2023-02-26T08:40:32.397Z,5.92
2023-02-26T08:43:09.200Z,5.96
2023-02-26T08:45:43.107Z,6.00
2023-02-26T08:48:46.774Z,6.06
2023-02-26T08:51:16.641Z,6.12
2023-02-26T08:53:47.575Z,6.19
2023-02-26T08:56:16.452Z,6.22
2023-02-26T08:58:45.055Z,6.24
2023-02-26T09:01:13.498Z,6.27
2023-02-26T09:03:42.122Z,6.37
2023-02-26T09:06:10.511Z,6.47
2023-02-26T09:08:39.090Z,6.55
2023-02-26T09:11:08.251Z,6.58
2023-02-26T09:13:36.548Z,6.61
2023-02-26T09:16:08.269Z,6.65
2023-02-26T09:18:37.295Z,6.69
2023-02-26T09:21:06.012Z,6.73
2023-02-26T09:23:37.218Z,6.73
2023-02-26T09:26:06.053Z,6.78
2023-02-26T09:28:36.339Z,6.84
2023-02-26T09:31:07.683Z,6.91
2023-02-26T09:33:37.044Z,6.99
2023-02-26T09:36:06.307Z,7.07
2023-02-26T09:38:36.186Z,7.16
2023-02-26T09:41:11.816Z,7.24
2023-02-26T09:43:59.125Z,7.28
2023-02-26T09:46:54.959Z,7.29
2023-02-26T09:49:32.466Z,7.29
2023-02-26T09:52:25.342Z,7.38
2023-02-26T09:54:56.787Z,7.43
2023-02-26T09:57:31.626Z,7.45
2023-02-26T10:00:03.175Z,7.47
2023-02-26T10:02:46.653Z,7.55
2023-02-26T10:05:26.606Z,7.65
2023-02-26T10:07:59.022Z,7.77
2023-02-26T10:10:45.318Z,7.82
2023-02-26T10:13:49.004Z,7.76
2023-02-26T10:16:33.870Z,7.80
2023-02-26T10:19:07.226Z,7.87
2023-02-26T10:21:42.876Z,7.90
2023-02-26T10:24:14.809Z,7.89
2023-02-26T10:26:47.178Z,7.79
2023-02-26T10:29:23.352Z,7.74
2023-02-26T10:32:13.639Z,7.86
2023-02-26T10:34:57.284Z,8.01
2023-02-26T10:37:44.800Z,8.08
2023-02-26T10:40:25.597Z,8.04
2023-02-26T10:43:02.462Z,8.10
2023-02-26T10:45:34.766Z,8.23
2023-02-26T10:48:22.838Z,8.36
2023-02-26T10:50:53.411Z,8.50
2023-02-26T10:53:22.102Z,8.57
2023-02-26T10:56:05.547Z,8.62
2023-02-26T10:58:38.625Z,8.66
2023-02-26T11:01:16.268Z,8.69
2023-02-26T11:03:47.258Z,8.64
2023-02-26T11:06:23.823Z,8.64
2023-02-26T11:08:53.752Z,8.63
2023-02-26T11:11:55.412Z,8.49
2023-02-26T11:14:26.831Z,8.39
2023-02-26T11:16:57.806Z,8.42
2023-02-26T11:19:36.609Z,8.28
2023-02-26T11:22:05.121Z,8.12
2023-02-26T11:24:40.599Z,8.10
2023-02-26T11:27:17.136Z,8.17
2023-02-26T11:29:48.841Z,8.27
2023-02-26T11:32:20.252Z,8.37
2023-02-26T11:34:52.574Z,8.51
2023-02-26T11:37:23.547Z,8.55
2023-02-26T11:40:00.362Z,8.53
2023-02-26T11:42:29.578Z,8.53
2023-02-26T11:44:57.925Z,8.55
2023-02-26T11:47:30.264Z,8.49
2023-02-26T11:50:05.800Z,8.38
2023-02-26T11:52:42.627Z,8.43
2023-02-26T11:55:29.028Z,8.54
2023-02-26T11:57:58.156Z,8.62
2023-02-26T12:00:36.538Z,8.64
2023-02-26T12:03:15.986Z,8.56
2023-02-26T12:05:44.569Z,8.54
2023-02-26T12:08:26.786Z,8.51
2023-02-26T12:11:35.404Z,8.51
2023-02-26T12:14:12.706Z,8.43
2023-02-26T12:17:00.626Z,8.32
2023-02-26T12:19:51.943Z,8.23
2023-02-26T12:22:43.515Z,8.21
2023-02-26T12:25:22.222Z,8.23
2023-02-26T12:28:28.256Z,8.17
2023-02-26T12:31:07.284Z,8.16
2023-02-26T12:33:38.335Z,8.21
2023-02-26T12:36:28.323Z,8.23
2023-02-26T12:39:15.666Z,8.24
2023-02-26T12:42:02.976Z,8.29
2023-02-26T12:45:09.144Z,8.30
2023-02-26T12:47:47.864Z,8.29
2023-02-26T12:50:22.495Z,8.33
2023-02-26T12:53:09.512Z,8.37
2023-02-26T12:56:14.964Z,8.40
2023-02-26T12:59:04.541Z,8.43
2023-02-26T13:02:01.308Z,8.45
2023-02-26T13:05:27.834Z,8.37
2023-02-26T13:08:27.021Z,8.33
2023-02-26T13:11:14.067Z,8.33
2023-02-26T13:13:45.204Z,8.34
2023-02-26T13:16:29.438Z,8.32
2023-02-26T13:19:21.946Z,8.37
2023-02-26T13:22:13.349Z,8.44
2023-02-26T13:24:51.050Z,8.47
2023-02-26T13:27:19.508Z,8.40
2023-02-26T13:30:07.406Z,8.32
2023-02-26T13:32:36.851Z,8.26
2023-02-26T13:35:18.548Z,8.18
2023-02-26T13:37:48.957Z,8.16
2023-02-26T13:40:20.235Z,8.11
2023-02-26T13:43:02.747Z,8.06
2023-02-26T13:45:31.367Z,8.06
2023-02-26T13:48:11.570Z,8.09
2023-02-26T13:50:58.823Z,8.10
2023-02-26T13:53:33.917Z,8.12
2023-02-26T13:56:42.568Z,8.13
2023-02-26T13:59:19.590Z,8.08
2023-02-26T14:01:52.133Z,8.07
2023-02-26T14:04:54.308Z,8.08
2023-02-26T14:07:46.850Z,8.11
2023-02-26T14:10:33.468Z,8.11
2023-02-26T14:13:14.743Z,7.96
2023-02-26T14:16:09.952Z,7.94
2023-02-26T14:18:48.043Z,7.95
2023-02-26T14:21:28.191Z,7.95
2023-02-26T14:24:05.549Z,7.95
2023-02-26T14:26:36.142Z,7.93
2023-02-26T14:29:14.971Z,7.94
2023-02-26T14:32:14.881Z,7.93
2023-02-26T14:34:49.479Z,7.89
2023-02-26T14:37:21.788Z,7.86
2023-02-26T14:40:01.992Z,7.86
2023-02-26T14:42:35.244Z,7.86
2023-02-26T14:45:30.496Z,7.83
2023-02-26T14:48:07.415Z,7.77
2023-02-26T14:51:02.155Z,7.74
2023-02-26T14:53:59.083Z,7.70
2023-02-26T14:56:33.506Z,7.69
2023-02-26T14:59:12.938Z,7.66
2023-02-26T15:01:48.132Z,7.61
2023-02-26T15:04:34.802Z,7.55
2023-02-26T15:07:38.302Z,7.49
2023-02-26T15:10:45.208Z,7.40
2023-02-26T15:13:29.249Z,7.34
2023-02-26T15:16:15.393Z,7.38
2023-02-26T15:19:07.456Z,7.35
2023-02-26T15:22:00.335Z,7.34
2023-02-26T15:24:30.170Z,7.34
2023-02-26T15:27:03.084Z,7.35
2023-02-26T15:29:36.529Z,7.34
2023-02-26T15:32:26.123Z,7.31
2023-02-26T15:35:04.953Z,7.26
2023-02-26T15:37:35.577Z,7.20
2023-02-26T15:40:06.243Z,7.15
2023-02-26T15:42:40.331Z,7.12
2023-02-26T15:45:22.015Z,7.10
2023-02-26T15:47:54.696Z,7.09
2023-02-26T15:50:25.904Z,7.07
2023-02-26T15:52:57.292Z,7.05
2023-02-26T15:55:25.871Z,7.04
2023-02-26T15:57:55.607Z,7.03
2023-02-26T16:00:25.760Z,7.01
2023-02-26T16:02:57.359Z,6.98
2023-02-26T16:05:26.084Z,6.96
2023-02-26T16:07:55.105Z,6.93
2023-02-26T16:10:39.330Z,6.89
2023-02-26T16:13:08.914Z,6.85
2023-02-26T16:15:41.426Z,6.82
2023-02-26T16:18:15.306Z,6.82
2023-02-26T16:20:46.041Z,6.81
2023-02-26T16:23:17.294Z,6.80
2023-02-26T16:25:53.836Z,6.79
2023-02-26T16:28:29.194Z,6.77
2023-02-26T16:30:58.452Z,6.75
2023-02-26T16:33:27.717Z,6.73
2023-02-26T16:36:12.879Z,6.79
2023-02-26T16:38:46.517Z,6.74
2023-02-26T16:41:15.408Z,6.73
2023-02-26T16:43:50.043Z,6.72
2023-02-26T16:46:23.224Z,6.74
2023-02-26T16:48:58.667Z,6.74
2023-02-26T16:51:29.071Z,6.73
2023-02-26T16:54:03.334Z,6.71
2023-02-26T16:56:38.758Z,6.69
2023-02-26T16:59:23.918Z,6.68
2023-02-26T17:01:52.399Z,6.67
2023-02-26T17:04:23.867Z,6.64
2023-02-26T17:06:53.356Z,6.62
2023-02-26T17:09:26.030Z,6.61
2023-02-26T17:12:10.387Z,6.62
2023-02-26T17:14:46.486Z,6.61
2023-02-26T17:17:17.390Z,6.60
2023-02-26T17:19:45.885Z,6.58
2023-02-26T17:22:16.512Z,6.55
2023-02-26T17:24:45.964Z,6.52
2023-02-26T17:27:24.432Z,6.48
2023-02-26T17:29:52.919Z,6.43
2023-02-26T17:32:31.335Z,6.40
2023-02-26T17:35:00.834Z,6.38
2023-02-26T17:37:36.355Z,6.39
2023-02-26T17:40:28.320Z,6.39
2023-02-26T17:43:13.208Z,6.42
2023-02-26T17:45:46.383Z,6.42
2023-02-26T17:48:18.023Z,6.41
2023-02-26T17:50:52.466Z,6.40
2023-02-26T17:53:28.940Z,6.39
2023-02-26T17:56:01.734Z,6.35
2023-02-26T17:58:34.896Z,6.32
2023-02-26T18:01:16.561Z,6.31
2023-02-26T18:03:56.587Z,6.31
2023-02-26T18:06:36.003Z,6.31
2023-02-26T18:09:06.176Z,6.29
2023-02-26T18:11:37.534Z,6.26
2023-02-26T18:14:17.237Z,6.24
2023-02-26T18:17:06.663Z,6.21
2023-02-26T18:20:08.879Z,6.17
2023-02-26T18:34:19.844Z,6.13
2023-02-26T18:37:11.562Z,6.11
2023-02-26T18:39:56.248Z,6.07
2023-02-26T18:42:37.930Z,6.04
2023-02-26T18:45:11.668Z,6.03
2023-02-26T18:47:45.234Z,6.01
2023-02-26T18:50:33.150Z,5.99
2023-02-26T18:53:07.734Z,5.99
2023-02-26T18:55:40.190Z,6.00
2023-02-26T18:58:11.554Z,6.02
2023-02-26T19:00:46.367Z,6.02
2023-02-26T19:03:19.359Z,6.00
2023-02-26T19:06:02.105Z,5.99
2023-02-26T19:08:33.107Z,5.97
2023-02-26T19:11:22.645Z,5.94
2023-02-26T19:13:53.732Z,5.91
2023-02-26T19:16:37.675Z,5.87
2023-02-26T19:19:39.749Z,5.83
2023-02-26T19:36:06.670Z,5.58
2023-02-26T19:38:37.871Z,5.55
2023-02-26T19:41:06.242Z,5.53
2023-02-26T19:43:35.337Z,5.49
2023-02-26T19:46:04.047Z,5.46
2023-02-26T19:48:33.133Z,5.42
2023-02-26T19:51:03.285Z,5.37
2023-02-26T19:53:35.202Z,5.34
2023-02-26T19:56:04.466Z,5.28
2023-02-26T19:58:34.854Z,5.20
2023-02-26T20:01:03.805Z,5.13
2023-02-26T20:03:34.051Z,5.04
2023-02-26T20:06:03.072Z,4.97
2023-02-26T20:08:32.430Z,4.94
2023-02-26T20:11:02.709Z,4.93
2023-02-26T20:13:35.181Z,4.92
2023-02-26T20:16:05.519Z,4.90
2023-02-26T20:18:35.464Z,4.89
2023-02-26T20:21:09.504Z,4.89
2023-02-26T20:23:40.135Z,4.88
2023-02-26T20:26:10.802Z,4.88
2023-02-26T20:28:39.703Z,4.88
2023-02-26T20:31:09.054Z,4.88
2023-02-26T20:33:44.063Z,4.87
2023-02-26T20:36:12.710Z,4.86
2023-02-26T20:38:43.177Z,4.85
2023-02-26T20:41:11.852Z,4.82
2023-02-26T20:43:40.407Z,4.78
2023-02-26T20:46:09.707Z,4.74
2023-02-26T20:48:42.031Z,4.75
2023-02-26T20:51:12.273Z,4.74
2023-02-26T20:53:40.920Z,4.74
2023-02-26T20:56:12.536Z,4.73
2023-02-26T20:58:42.428Z,4.73
2023-02-26T21:01:10.794Z,4.72
2023-02-26T21:03:39.744Z,4.74
2023-02-26T21:06:08.739Z,4.77
2023-02-26T21:08:37.429Z,4.77
2023-02-26T21:11:08.387Z,4.70
2023-02-26T21:13:40.535Z,4.65
2023-02-26T21:16:10.176Z,4.59
2023-02-26T21:18:38.521Z,4.52
2023-02-26T21:21:06.931Z,4.44
2023-02-26T21:23:35.576Z,4.39
2023-02-26T21:26:04.790Z,4.37
2023-02-26T21:28:34.306Z,4.37
2023-02-26T21:31:03.336Z,4.38
2023-02-26T21:33:33.787Z,4.40
2023-02-26T21:36:02.109Z,4.43
2023-02-26T21:38:31.508Z,4.48
2023-02-26T21:40:59.794Z,4.53
2023-02-26T21:43:28.377Z,4.56
2023-02-26T21:45:56.666Z,4.54
2023-02-26T21:48:26.471Z,4.54
2023-02-26T21:50:56.726Z,4.56
2023-02-26T21:53:27.128Z,4.57
2023-02-26T21:55:57.156Z,4.57
2023-02-26T21:58:26.030Z,4.59
2023-02-26T22:00:54.439Z,4.61
2023-02-26T22:03:22.893Z,4.65
2023-02-26T22:05:52.479Z,4.68
2023-02-26T22:08:20.684Z,4.67
2023-02-26T22:10:49.895Z,4.61
2023-02-26T22:13:19.166Z,4.50
2023-02-26T22:15:47.566Z,4.38
2023-02-26T22:18:16.398Z,4.34
2023-02-26T22:20:44.738Z,4.35
2023-02-26T22:23:13.218Z,4.36
2023-02-26T22:25:41.733Z,4.38
2023-02-26T22:28:10.306Z,4.43
2023-02-26T22:30:39.819Z,4.47
2023-02-26T22:33:08.387Z,4.51
2023-02-26T22:35:37.399Z,4.54
2023-02-26T22:38:05.976Z,4.56
2023-02-26T22:40:34.760Z,4.58
2023-02-26T22:43:04.016Z,4.61
2023-02-26T22:45:33.364Z,4.62
2023-02-26T22:48:02.974Z,4.65
2023-02-26T22:50:33.915Z,4.68
2023-02-26T22:53:07.172Z,4.69
2023-02-26T22:55:35.594Z,4.67
2023-02-26T22:58:04.886Z,4.67
2023-02-26T23:00:33.380Z,4.68
2023-02-26T23:03:05.760Z,4.69
2023-02-26T23:05:34.459Z,4.72
2023-02-26T23:08:09.689Z,4.70
2023-02-26T23:10:38.407Z,4.70
2023-02-26T23:13:07.300Z,4.70
2023-02-26T23:15:35.790Z,4.69
2023-02-26T23:18:04.456Z,4.66
2023-02-26T23:20:32.730Z,4.64
2023-02-26T23:23:00.901Z,4.60
2023-02-26T23:25:29.498Z,4.56
2023-02-26T23:27:57.988Z,4.52
2023-02-26T23:30:28.409Z,4.46
2023-02-26T23:32:57.433Z,4.42
2023-02-26T23:35:25.769Z,4.40
2023-02-26T23:37:54.354Z,4.38
2023-02-26T23:40:22.556Z,4.36
2023-02-26T23:42:51.114Z,4.35
2023-02-26T23:45:19.801Z,4.33
2023-02-26T23:47:48.182Z,4.31
2023-02-26T23:50:21.278Z,4.30
2023-02-26T23:52:50.780Z,4.29
2023-02-26T23:55:19.157Z,4.29
2023-02-26T23:57:48.878Z,4.30
